Terminal Aerodrome Forecast
Issued by NWS

Home | Current Version | Previous Version | Text Only | Print | Product List | Glossary On
Versions: 1 2 3 4 5 6 7 8 9 10 11 12 13 14 15 16 17 18 19
000
FTUS43 KDLH 261000 AAA
TAFBRD
TAF AMD
KBRD 261011Z 2610/2706 VRB01KT 1 1/2SM BR SCT002
      TEMPO 2610/2613 5SM BR FEW002
     FM261300 27003KT P6SM SKC
     FM261700 25008G15KT P6SM SKC
     FM270000 27008KT P6SM VCSH BKN050=

USA.gov is the U.S. government's official web portal to all federal, state and local government web resources and services.